createdAt,value
2023-05-14T00:01:05.473Z,100944.81
2023-05-14T00:04:07.957Z,100940.06
2023-05-14T00:07:10.364Z,100933.72
2023-05-14T00:10:12.641Z,100930.81
2023-05-14T00:13:14.922Z,100931.34
2023-05-14T00:16:17.210Z,100923.19
2023-05-14T00:19:19.465Z,100922.63
2023-05-14T00:22:21.762Z,100918.66
2023-05-14T00:25:24.153Z,100923.69
2023-05-14T00:28:26.447Z,100917.34
2023-05-14T00:31:28.729Z,100911.81
2023-05-14T00:34:31.393Z,100904.13
2023-05-14T00:37:33.813Z,100922.34
2023-05-14T00:40:36.275Z,100922.88
2023-05-14T00:43:38.691Z,100921.56
2023-05-14T00:46:41.159Z,100918.34
2023-05-14T00:49:43.814Z,100907.84
2023-05-14T00:52:47.024Z,100906.22
2023-05-14T00:55:50.388Z,100918.34
2023-05-14T00:58:52.599Z,100903.31
2023-05-14T01:01:54.952Z,100903.06
2023-05-14T01:04:57.726Z,100902.00
2023-05-14T01:08:41.909Z,100899.13
2023-05-14T01:11:56.542Z,100901.47
2023-05-14T01:15:15.375Z,100888.81
2023-05-14T01:18:19.729Z,100881.16
2023-05-14T01:21:40.942Z,100874.88
2023-05-14T01:24:43.383Z,100877.72
2023-05-14T01:28:00.732Z,100877.22
2023-05-14T01:31:32.272Z,100880.88
2023-05-14T01:34:36.399Z,100873.47
2023-05-14T01:37:41.404Z,100860.03
2023-05-14T01:40:46.746Z,100860.59
2023-05-14T01:43:49.482Z,100856.91
2023-05-14T01:46:51.823Z,100853.22
2023-05-14T01:49:54.123Z,100847.44
2023-05-14T01:52:59.214Z,100845.31
2023-05-14T01:56:02.951Z,100839.28
2023-05-14T01:59:05.315Z,100841.63
2023-05-14T02:02:08.017Z,100832.41
2023-05-14T02:05:11.900Z,100826.84
2023-05-14T02:08:14.117Z,100817.69
2023-05-14T02:11:16.389Z,100819.00
2023-05-14T02:14:18.645Z,100814.00
2023-05-14T02:17:21.175Z,100816.91
2023-05-14T02:20:23.576Z,100813.97
2023-05-14T02:23:37.897Z,100813.16
2023-05-14T02:26:43.663Z,100812.41
2023-05-14T02:29:45.939Z,100810.53
2023-05-14T02:32:48.351Z,100808.97
2023-05-14T02:35:50.587Z,100809.22
2023-05-14T02:38:53.358Z,100812.66
2023-05-14T02:41:57.474Z,100804.19
2023-05-14T02:44:59.840Z,100802.09
2023-05-14T02:48:02.348Z,100802.38
2023-05-14T02:51:05.761Z,100802.13
2023-05-14T02:54:08.207Z,100803.44
2023-05-14T02:57:10.524Z,100806.59
2023-05-14T03:00:13.316Z,100797.88
2023-05-14T03:03:15.985Z,100793.16
2023-05-14T03:06:18.634Z,100792.53
2023-05-14T03:09:20.932Z,100791.00
2023-05-14T03:12:23.371Z,100791.50
2023-05-14T03:15:25.822Z,100795.75
2023-05-14T03:18:30.650Z,100785.44
2023-05-14T03:21:33.233Z,100781.72
2023-05-14T03:24:41.057Z,100781.75
2023-05-14T03:27:43.339Z,100785.19
2023-05-14T03:30:45.652Z,100794.13
2023-05-14T03:33:47.953Z,100795.91
2023-05-14T03:36:50.687Z,100786.91
2023-05-14T03:39:52.911Z,100792.16
2023-05-14T03:42:56.069Z,100790.81
2023-05-14T03:45:58.987Z,100796.31
2023-05-14T03:49:01.602Z,100806.88
2023-05-14T03:52:04.260Z,100808.72
2023-05-14T03:55:07.051Z,100802.13
2023-05-14T03:58:14.336Z,100801.66
2023-05-14T04:01:16.944Z,100783.41
2023-05-14T04:04:19.252Z,100782.88
2023-05-14T04:07:21.586Z,100781.28
2023-05-14T04:10:23.993Z,100787.56
2023-05-14T04:13:26.464Z,100788.06
2023-05-14T04:16:29.846Z,100785.97
2023-05-14T04:19:32.128Z,100781.00
2023-05-14T04:22:34.372Z,100776.56
2023-05-14T04:25:36.617Z,100767.03
2023-05-14T04:28:38.851Z,100773.13
2023-05-14T04:31:42.210Z,100775.69
2023-05-14T04:34:44.685Z,100774.09
2023-05-14T04:37:47.146Z,100766.66
2023-05-14T04:40:49.359Z,100767.16
2023-05-14T04:43:51.718Z,100770.56
2023-05-14T04:46:54.040Z,100769.50
2023-05-14T04:49:56.272Z,100768.47
2023-05-14T04:52:58.615Z,100764.72
2023-05-14T04:56:00.891Z,100762.31
2023-05-14T04:59:03.127Z,100760.25
2023-05-14T05:02:05.393Z,100769.13
2023-05-14T05:05:08.761Z,100765.34
2023-05-14T05:08:11.548Z,100763.50
2023-05-14T05:11:13.930Z,100768.41
2023-05-14T05:14:16.338Z,100758.50
2023-05-14T05:17:18.611Z,100760.25
2023-05-14T05:20:20.997Z,100761.56
2023-05-14T05:23:23.329Z,100752.88
2023-05-14T05:26:27.240Z,100752.34
2023-05-14T05:29:29.532Z,100745.66
2023-05-14T05:32:31.933Z,100754.09
2023-05-14T05:35:36.744Z,100741.44
2023-05-14T05:38:39.006Z,100757.25
2023-05-14T05:41:41.288Z,100753.25
2023-05-14T05:44:43.513Z,100760.13
2023-05-14T05:47:45.903Z,100755.44
2023-05-14T05:50:49.521Z,100746.50
2023-05-14T05:53:51.791Z,100759.09
2023-05-14T05:56:54.059Z,100742.97
2023-05-14T05:59:56.369Z,100753.38
2023-05-14T06:02:59.330Z,100750.19
2023-05-14T06:06:01.593Z,100755.06
2023-05-14T06:09:04.765Z,100752.06
2023-05-14T06:12:07.474Z,100758.41
2023-05-14T06:15:10.080Z,100756.97
2023-05-14T06:18:12.394Z,100760.66
2023-05-14T06:21:14.633Z,100764.09
2023-05-14T06:24:20.431Z,100774.22
2023-05-14T06:27:22.955Z,100761.09
2023-05-14T06:30:25.460Z,100754.47
2023-05-14T06:33:31.353Z,100754.16
2023-05-14T06:36:33.731Z,100763.81
2023-05-14T06:39:39.237Z,100764.66
2023-05-14T06:42:42.317Z,100761.34
2023-05-14T06:45:52.151Z,100766.47
2023-05-14T06:48:55.667Z,100755.91
2023-05-14T06:51:59.041Z,100747.50
2023-05-14T06:55:01.320Z,100748.81
2023-05-14T06:58:04.133Z,100742.09
2023-05-14T07:01:06.622Z,100741.19
2023-05-14T07:04:08.972Z,100731.88
2023-05-14T07:07:15.365Z,100731.03
2023-05-14T07:10:17.795Z,100715.53
2023-05-14T07:13:20.131Z,100724.28
2023-05-14T07:16:22.477Z,100714.84
2023-05-14T07:19:24.729Z,100724.66
2023-05-14T13:14:12.781Z,100369.44
2023-05-14T13:17:15.328Z,100370.22
2023-05-14T13:20:18.439Z,100365.81
2023-05-14T13:23:20.845Z,100358.84
2023-05-14T13:26:26.560Z,100362.75
2023-05-14T13:29:31.741Z,100351.41
2023-05-14T13:32:34.094Z,100352.94
2023-05-14T13:35:36.462Z,100346.59
2023-05-14T13:38:39.347Z,100340.97
2023-05-14T13:41:41.906Z,100333.34
2023-05-14T13:44:44.188Z,100324.41
2023-05-14T13:47:46.533Z,100322.94
2023-05-14T13:50:50.121Z,100311.13
2023-05-14T13:56:56.848Z,100314.56
2023-05-14T13:59:59.151Z,100299.59
2023-05-14T14:03:01.474Z,100303.97
2023-05-14T14:06:03.838Z,100308.56
2023-05-14T14:09:06.164Z,100298.53
2023-05-14T14:12:09.112Z,100296.28
2023-05-14T14:15:11.724Z,100287.31
2023-05-14T14:18:14.017Z,100291.81
2023-05-14T14:21:18.405Z,100290.91
2023-05-14T14:24:20.836Z,100287.78
2023-05-14T14:27:23.086Z,100284.53
2023-05-14T14:30:25.436Z,100286.69
2023-05-14T14:33:27.730Z,100283.81
2023-05-14T14:36:32.290Z,100281.19
2023-05-14T14:39:34.588Z,100282.28
2023-05-14T14:42:37.807Z,100283.63
2023-05-14T14:45:40.215Z,100286.19
2023-05-14T14:48:42.569Z,100269.63
2023-05-14T14:51:45.022Z,100270.91
2023-05-14T14:54:47.333Z,100263.38
2023-05-14T14:57:49.583Z,100268.28
2023-05-14T15:00:55.567Z,100256.50
2023-05-14T15:03:57.890Z,100254.16
2023-05-14T15:07:00.849Z,100252.88
2023-05-14T15:10:03.233Z,100248.56
2023-05-14T15:13:07.459Z,100249.84
2023-05-14T15:16:09.874Z,100251.47
2023-05-14T15:19:12.247Z,100238.56
2023-05-14T15:22:14.753Z,100221.50
2023-05-14T15:25:17.041Z,100233.53
2023-05-14T15:28:19.307Z,100219.81
2023-05-14T15:31:21.730Z,100214.53
2023-05-14T15:34:24.214Z,100209.13
2023-05-14T15:37:26.893Z,100228.63
2023-05-14T15:40:29.610Z,100222.69
2023-05-14T15:43:31.960Z,100225.75
2023-05-14T15:46:34.544Z,100225.53
2023-05-14T15:49:36.840Z,100218.63
2023-05-14T15:52:40.664Z,100222.09
2023-05-14T15:55:43.191Z,100211.06
2023-05-14T15:58:45.511Z,100189.63
2023-05-14T16:01:48.023Z,100182.50
2023-05-14T16:04:50.347Z,100173.69
2023-05-14T16:07:52.678Z,100157.34
2023-05-14T16:10:54.912Z,100152.84
2023-05-14T16:13:58.476Z,100157.75
2023-05-14T16:17:01.872Z,100160.41
2023-05-14T16:20:05.057Z,100165.81
2023-05-14T16:23:07.402Z,100166.53
2023-05-14T16:26:09.736Z,100169.25
2023-05-14T16:29:12.371Z,100165.72
2023-05-14T16:32:14.694Z,100175.81
2023-05-14T16:35:17.119Z,100177.34
2023-05-14T16:38:19.338Z,100175.50
2023-05-14T16:41:24.172Z,100166.44
2023-05-14T16:44:26.450Z,100165.03
2023-05-14T16:47:28.713Z,100157.09
2023-05-14T16:50:30.997Z,100141.25
2023-05-14T16:53:33.265Z,100138.03
2023-05-14T16:56:36.660Z,100119.06
2023-05-14T16:59:38.932Z,100128.69
2023-05-14T17:02:41.712Z,100124.19
2023-05-14T17:05:44.249Z,100118.91
2023-05-14T17:08:46.595Z,100125.47
2023-05-14T17:11:48.830Z,100114.50
2023-05-14T17:14:51.294Z,100122.59
2023-05-14T17:17:54.268Z,100105.88
2023-05-14T17:20:56.621Z,100107.94
2023-05-14T17:23:58.984Z,100104.22
2023-05-14T17:27:01.252Z,100101.78
2023-05-14T17:30:04.076Z,100099.72
2023-05-14T17:33:06.444Z,100099.31
2023-05-14T17:36:08.809Z,100093.06
2023-05-14T17:39:11.136Z,100089.16
2023-05-14T17:42:13.391Z,100085.94
2023-05-14T17:45:23.825Z,100088.09
2023-05-14T17:48:26.409Z,100086.88
2023-05-14T17:51:28.846Z,100075.69
2023-05-14T17:54:31.162Z,100067.00
2023-05-14T17:57:35.336Z,100066.63
2023-05-14T18:00:37.730Z,100061.84
2023-05-14T18:03:40.158Z,100056.06
2023-05-14T18:06:44.125Z,100058.72
2023-05-14T18:09:46.670Z,100047.28
2023-05-14T18:12:48.962Z,100055.41
2023-05-14T18:15:54.212Z,100062.25
2023-05-14T18:18:56.754Z,100044.91
2023-05-14T18:21:59.060Z,100045.69
2023-05-14T18:25:02.602Z,100038.88
2023-05-14T18:28:05.557Z,100042.50
2023-05-14T18:31:07.933Z,100057.69
2023-05-14T18:34:10.450Z,100065.88
2023-05-14T18:37:12.828Z,100061.97
2023-05-14T18:40:17.698Z,100063.34
2023-05-14T18:43:20.909Z,100059.59
2023-05-14T18:46:23.878Z,100069.59
2023-05-14T18:49:26.311Z,100073.09
2023-05-14T18:52:29.121Z,100070.56
2023-05-14T18:55:31.455Z,100071.34
2023-05-14T18:58:33.743Z,100060.88
2023-05-14T19:01:36.401Z,100061.56
2023-05-14T19:04:51.236Z,100051.59
2023-05-14T19:07:55.054Z,100057.66
2023-05-14T19:10:57.415Z,100059.34
2023-05-14T19:14:00.141Z,100060.78
2023-05-14T19:17:02.836Z,100051.28
2023-05-14T19:20:06.417Z,100039.06
2023-05-14T19:23:08.716Z,100030.06
2023-05-14T19:26:11.108Z,100042.88
2023-05-14T19:29:13.594Z,100044.47
2023-05-14T19:32:15.848Z,100048.16
2023-05-14T19:35:18.096Z,100047.78
2023-05-14T19:38:20.973Z,100038.69
2023-05-14T19:41:23.264Z,100030.06
2023-05-14T19:44:25.795Z,100032.41
2023-05-14T19:47:28.844Z,100029.19
2023-05-14T19:50:31.139Z,100035.06
2023-05-14T19:53:33.503Z,100027.31
2023-05-14T19:56:35.956Z,100003.34
2023-05-14T19:59:39.308Z,100019.00
2023-05-14T20:02:42.072Z,100034.16
2023-05-14T20:05:45.329Z,100021.38
2023-05-14T20:08:47.794Z,100010.00
2023-05-14T20:11:50.189Z,100010.97
2023-05-14T20:14:52.451Z,99989.94
2023-05-14T20:17:55.023Z,100007.53
2023-05-14T20:20:57.305Z,99997.59
2023-05-14T20:23:59.639Z,100008.97
2023-05-14T20:27:02.067Z,100002.38
2023-05-14T20:30:05.027Z,99991.84
2023-05-14T20:33:07.480Z,99989.56
2023-05-14T20:36:10.030Z,99997.09
2023-05-14T20:39:12.245Z,99990.13
2023-05-14T20:42:14.541Z,99979.97
2023-05-14T20:45:17.117Z,99980.34
2023-05-14T20:48:21.425Z,99985.13
2023-05-14T20:51:23.785Z,99974.84
2023-05-14T20:54:26.184Z,99967.34
2023-05-14T20:57:28.479Z,99972.81
2023-05-14T21:00:30.816Z,99976.84
2023-05-14T21:03:33.276Z,99965.00
2023-05-14T21:06:35.833Z,99957.66
2023-05-14T21:09:38.102Z,99947.09
2023-05-14T21:12:42.075Z,99953.97
2023-05-14T21:15:45.125Z,99952.06
2023-05-14T21:18:47.464Z,99939.47
2023-05-14T21:21:49.820Z,99936.63
2023-05-14T21:24:52.080Z,99940.03
2023-05-14T21:27:54.408Z,99933.22
2023-05-14T21:30:56.839Z,99933.22
2023-05-14T21:33:59.057Z,99927.81
2023-05-14T21:37:01.448Z,99918.56
2023-05-14T21:40:03.802Z,99917.19
2023-05-14T21:43:06.332Z,99916.28
2023-05-14T21:46:08.733Z,99898.59
2023-05-14T21:49:11.020Z,99876.84
2023-05-14T21:52:13.343Z,99870.59
2023-05-14T21:55:15.817Z,99879.47
2023-05-14T21:58:18.113Z,99867.19
2023-05-14T22:01:20.387Z,99867.19
2023-05-14T22:04:22.723Z,99864.72
2023-05-14T22:07:25.161Z,99877.94
2023-05-14T22:10:27.462Z,99867.47
2023-05-14T22:13:29.993Z,99864.13
2023-05-14T22:16:33.083Z,99871.28
2023-05-14T22:19:35.455Z,99873.81
2023-05-14T22:22:38.094Z,99877.22
2023-05-14T22:25:40.380Z,99884.72
2023-05-14T22:28:43.706Z,99879.88
2023-05-14T22:31:46.111Z,99876.69
2023-05-14T22:34:48.421Z,99886.16
2023-05-14T22:37:50.744Z,99883.53
2023-05-14T22:40:53.042Z,99867.63
2023-05-14T22:43:55.454Z,99875.66
2023-05-14T22:46:58.121Z,99881.13
2023-05-14T22:50:00.469Z,99874.44
2023-05-14T22:53:02.739Z,99868.09
2023-05-14T22:56:05.672Z,99867.31
2023-05-14T22:59:08.033Z,99872.84
2023-05-14T23:02:10.461Z,99859.47
2023-05-14T23:05:12.872Z,99872.03
2023-05-14T23:08:15.326Z,99864.88
2023-05-14T23:11:17.647Z,99878.34
2023-05-14T23:14:20.012Z,99878.84
2023-05-14T23:17:25.474Z,99855.31
2023-05-14T23:20:27.765Z,99862.34
2023-05-14T23:23:30.104Z,99860.28
2023-05-14T23:26:32.744Z,99860.88
2023-05-14T23:29:35.062Z,99845.81
2023-05-14T23:32:37.338Z,99844.28
2023-05-14T23:35:40.733Z,99825.47
2023-05-14T23:38:43.219Z,99807.28
2023-05-14T23:41:45.510Z,99811.78
2023-05-14T23:44:48.134Z,99819.88
2023-05-14T23:47:50.647Z,99815.09
2023-05-14T23:50:52.995Z,99813.69
2023-05-14T23:54:01.144Z,99799.72
2023-05-14T23:57:04.048Z,99794.84
